createdAt,value
2016-10-07T00:00:05.350Z,89.43
2016-10-07T00:01:05.311Z,89.62
2016-10-07T00:02:05.277Z,89.24
2016-10-07T00:03:05.229Z,89.33
2016-10-07T00:04:05.202Z,89.33
2016-10-07T00:05:05.152Z,89.33
2016-10-07T00:06:04.811Z,89.33
2016-10-07T00:07:05.077Z,89.05
2016-10-07T00:08:05.037Z,89.05
2016-10-07T00:09:04.995Z,89.05
2016-10-07T00:10:04.958Z,89.33
2016-10-07T00:11:04.918Z,88.86
2016-10-07T00:12:04.878Z,88.95
2016-10-07T00:13:04.843Z,88.95
2016-10-07T00:14:04.801Z,88.86
2016-10-07T00:15:04.766Z,88.95
2016-10-07T00:16:04.419Z,88.67
2016-10-07T00:17:04.683Z,88.86
2016-10-07T00:18:04.644Z,88.29
2016-10-07T00:19:04.604Z,88.2
2016-10-07T00:20:04.263Z,88.67
2016-10-07T00:21:04.230Z,88.29
2016-10-07T00:22:04.491Z,88.2
2016-10-07T00:23:04.447Z,88.48
2016-10-07T00:24:04.407Z,88.76
2016-10-07T00:25:04.373Z,88.86
2016-10-07T00:26:04.334Z,88.67
2016-10-07T00:27:04.141Z,88.39
2016-10-07T00:28:04.248Z,88.48
2016-10-07T00:29:04.218Z,88.29
2016-10-07T00:30:04.181Z,88.29
2016-10-07T00:31:04.136Z,88.48
2016-10-07T00:32:04.099Z,88.39
2016-10-07T00:33:04.060Z,88.39
2016-10-07T00:34:04.018Z,87.72
2016-10-07T00:35:03.981Z,87.82
2016-10-07T00:36:03.641Z,88.01
2016-10-07T00:37:03.601Z,87.62
2016-10-07T00:38:03.860Z,87.53
2016-10-07T00:39:03.826Z,87.72
2016-10-07T00:40:03.784Z,87.15
2016-10-07T00:41:03.746Z,87.24
2016-10-07T00:42:03.706Z,87.34
2016-10-07T00:43:03.668Z,87.15
2016-10-07T00:44:03.628Z,86.91
2016-10-07T00:45:03.592Z,86.96
2016-10-07T00:46:03.551Z,87.1
2016-10-07T00:47:03.522Z,86.91
2016-10-07T00:48:03.170Z,87.01
2016-10-07T00:49:03.431Z,87.1
2016-10-07T00:50:03.095Z,86.53
2016-10-07T00:51:03.358Z,86.72
2016-10-07T00:52:03.318Z,86.53
2016-10-07T00:53:03.278Z,86.53
2016-10-07T00:54:02.939Z,86.53
2016-10-07T00:55:03.200Z,86.53
2016-10-07T00:56:03.161Z,86.43
2016-10-07T00:57:03.125Z,86.53
2016-10-07T00:58:03.083Z,86.05
2016-10-07T00:59:03.045Z,86.34
2016-10-07T01:00:03.019Z,86.34
2016-10-07T01:01:02.968Z,86.53
2016-10-07T01:02:02.930Z,86.72
2016-10-07T01:03:02.588Z,86.43
2016-10-07T01:04:02.851Z,86.63
2016-10-07T01:05:02.811Z,86.53
2016-10-07T01:06:02.779Z,86.63
2016-10-07T01:07:02.733Z,86.72
2016-10-07T01:08:02.394Z,86.24
2016-10-07T01:09:02.659Z,86.15
2016-10-07T01:10:02.617Z,86.43
2016-10-07T01:11:02.578Z,86.43
2016-10-07T01:12:02.237Z,86.15
2016-10-07T01:13:02.199Z,86.24
2016-10-07T01:14:02.162Z,86.05
2016-10-07T01:15:02.124Z,86.15
2016-10-07T01:16:02.383Z,86.34
2016-10-07T01:17:02.345Z,86.34
2016-10-07T01:18:02.309Z,86.43
2016-10-07T01:19:02.265Z,86.43
2016-10-07T01:20:01.935Z,85.86
2016-10-07T01:21:01.910Z,85.96
2016-10-07T01:22:02.149Z,85.86
2016-10-07T01:23:02.110Z,85.68
2016-10-07T01:24:01.778Z,85.68
2016-10-07T01:25:01.732Z,85.77
2016-10-07T01:26:01.691Z,85.68
2016-10-07T01:27:01.959Z,85.96
2016-10-07T01:28:01.919Z,85.68
2016-10-07T01:29:01.879Z,85.49
2016-10-07T01:30:01.539Z,85.39
2016-10-07T01:31:01.802Z,85.2
2016-10-07T01:32:01.764Z,85.06
2016-10-07T01:33:01.724Z,85.11
2016-10-07T01:34:01.384Z,84.87
2016-10-07T01:35:01.646Z,85.01
2016-10-07T01:36:01.607Z,85.01
2016-10-07T01:37:01.573Z,85.01
2016-10-07T01:38:01.531Z,85.01
2016-10-07T01:39:01.494Z,85.11
2016-10-07T01:40:01.455Z,84.91
2016-10-07T01:41:01.418Z,84.44
2016-10-07T01:42:01.379Z,84.63
2016-10-07T01:43:01.337Z,84.72
2016-10-07T01:44:01.300Z,84.63
2016-10-07T01:45:01.259Z,84.25
2016-10-07T01:46:00.919Z,84.16
2016-10-07T01:47:01.183Z,84.34
2016-10-07T01:48:01.142Z,83.49
2016-10-07T01:49:01.106Z,84.53
2016-10-07T01:50:00.765Z,84.44
2016-10-07T01:51:01.027Z,84.34
2016-10-07T01:52:00.992Z,84.53
2016-10-07T01:53:00.644Z,84.25
2016-10-07T01:54:00.912Z,84.34
2016-10-07T01:55:00.872Z,84.34
2016-10-07T01:56:00.831Z,84.53
2016-10-07T01:57:00.494Z,84.72
2016-10-07T01:58:00.765Z,84.53
2016-10-07T01:59:00.721Z,84.16
2016-10-07T02:00:00.680Z,83.97
2016-10-07T02:01:00.335Z,83.97
2016-10-07T02:02:00.296Z,83.97
2016-10-07T02:03:00.262Z,83.87
2016-10-07T02:04:00.524Z,83.87
2016-10-07T02:05:00.182Z,84.16
2016-10-07T02:06:00.445Z,83.97
2016-10-07T02:07:00.109Z,84.16
2016-10-07T02:08:00.065Z,83.39
2016-10-07T02:09:00.334Z,83.59
2016-10-07T02:09:59.989Z,83.59
2016-10-07T02:11:00.251Z,83.97
2016-10-07T02:12:00.213Z,84.16
2016-10-07T02:13:00.177Z,83.87
2016-10-07T02:13:59.831Z,83.97
2016-10-07T02:14:59.795Z,84.16
2016-10-07T02:16:00.058Z,83.97
2016-10-07T02:16:59.716Z,83.78
2016-10-07T02:17:59.996Z,84.06
2016-10-07T02:18:59.941Z,83.97
2016-10-07T02:19:59.903Z,83.78
2016-10-07T02:20:59.864Z,84.06
2016-10-07T02:21:59.828Z,83.78
2016-10-07T02:22:59.797Z,84.25
2016-10-07T02:23:59.447Z,84.44
2016-10-07T02:24:59.408Z,84.21
2016-10-07T02:25:59.675Z,84.21
2016-10-07T02:26:59.638Z,84.01
2016-10-07T02:27:59.593Z,84.59
2016-10-07T02:28:59.255Z,84.49
2016-10-07T02:29:59.516Z,84.59
2016-10-07T02:30:59.478Z,84.87
2016-10-07T02:31:59.440Z,85.06
2016-10-07T02:32:59.401Z,84.78
2016-10-07T02:33:59.361Z,84.59
2016-10-07T02:34:59.330Z,85.06
2016-10-07T02:35:59.284Z,85.35
2016-10-07T02:36:58.945Z,85.53
2016-10-07T02:37:59.209Z,85.35
2016-10-07T02:38:59.171Z,85.82
2016-10-07T02:39:59.130Z,85.82
2016-10-07T02:40:59.093Z,86.11
2016-10-07T02:41:58.752Z,86.01
2016-10-07T02:42:59.029Z,86.2
2016-10-07T02:43:58.975Z,86.39
2016-10-07T02:44:58.641Z,85.91
2016-10-07T02:45:58.896Z,86.2
2016-10-07T02:46:58.860Z,86.11
2016-10-07T02:47:58.820Z,86.87
2016-10-07T02:48:58.783Z,86.49
2016-10-07T02:49:58.741Z,86.77
2016-10-07T02:50:58.404Z,86.39
2016-10-07T02:51:58.668Z,86.87
2016-10-07T02:52:58.628Z,86.96
2016-10-07T02:53:58.588Z,87.24
2016-10-07T02:54:58.247Z,86.82
2016-10-07T02:55:58.511Z,86.96
2016-10-07T02:56:58.470Z,86.82
2016-10-07T02:57:58.135Z,86.82
2016-10-07T02:58:58.393Z,87.01
2016-10-07T02:59:58.355Z,87.01
2016-10-07T03:00:58.318Z,87.3
2016-10-07T03:01:58.280Z,87.49
2016-10-07T03:02:58.242Z,87.68
2016-10-07T03:03:57.900Z,87.77
2016-10-07T03:04:58.162Z,87.58
2016-10-07T03:05:58.126Z,87.77
2016-10-07T03:06:58.087Z,87.77
2016-10-07T03:07:58.049Z,87.58
2016-10-07T03:08:58.012Z,88.15
2016-10-07T03:09:57.971Z,88.24
2016-10-07T03:10:57.926Z,88.06
2016-10-07T03:11:57.609Z,87.96
2016-10-07T03:12:57.852Z,88.43
2016-10-07T03:13:57.812Z,88.72
2016-10-07T03:14:57.773Z,88.15
2016-10-07T03:15:57.737Z,88.24
2016-10-07T03:16:57.710Z,88.43
2016-10-07T03:17:57.660Z,88.34
2016-10-07T03:18:57.317Z,88.53
2016-10-07T03:19:57.579Z,88.72
2016-10-07T03:20:57.543Z,88.53
2016-10-07T03:21:57.504Z,88.53
2016-10-07T03:22:57.464Z,88.62
2016-10-07T03:23:57.485Z,88.53
2016-10-07T03:24:57.385Z,88.86
2016-10-07T03:25:57.348Z,88.86
2016-10-07T03:26:57.308Z,88.76
2016-10-07T03:27:57.269Z,89.24
2016-10-07T03:28:57.228Z,88.86
2016-10-07T03:29:57.191Z,88.95
2016-10-07T03:30:57.150Z,89.24
2016-10-07T03:31:57.114Z,88.95
2016-10-07T03:32:57.073Z,88.86
2016-10-07T03:33:57.035Z,88.95
2016-10-07T03:34:56.994Z,88.95
2016-10-07T03:35:56.959Z,89.05
2016-10-07T03:36:56.923Z,89.05
2016-10-07T03:37:56.882Z,89.05
2016-10-07T03:38:56.840Z,88.95
2016-10-07T03:39:56.803Z,88.95
2016-10-07T03:40:56.769Z,88.57
2016-10-07T03:41:56.729Z,88.76
2016-10-07T03:42:56.685Z,88.39
2016-10-07T03:43:56.648Z,88.29
2016-10-07T03:44:56.608Z,88.39
2016-10-07T03:45:56.612Z,88.24
2016-10-07T03:46:56.227Z,88.24
2016-10-07T03:47:56.189Z,88.06
2016-10-07T03:48:56.454Z,87.96
2016-10-07T03:49:56.418Z,88.06
2016-10-07T03:50:56.376Z,88.24
2016-10-07T03:51:56.033Z,88.53
2016-10-07T03:52:56.300Z,88.62
2016-10-07T03:53:56.256Z,88.53
2016-10-07T03:54:56.217Z,88.43
2016-10-07T03:55:56.180Z,88.81
2016-10-07T03:56:56.138Z,89
2016-10-07T03:57:56.098Z,89.1
2016-10-07T03:58:56.063Z,88.81
2016-10-07T03:59:56.030Z,88.81
2016-10-07T04:00:55.989Z,88.91
2016-10-07T04:01:55.948Z,88.81
2016-10-07T04:02:55.905Z,88.91
2016-10-07T04:03:55.867Z,88.91
2016-10-07T04:04:55.830Z,89.1
2016-10-07T04:05:55.793Z,89
2016-10-07T04:06:55.753Z,89
2016-10-07T04:07:55.409Z,88.81
2016-10-07T04:08:55.677Z,88.91
2016-10-07T04:09:55.630Z,88.81
2016-10-07T04:10:55.591Z,89.1
2016-10-07T04:11:55.557Z,89.48
2016-10-07T04:12:55.517Z,89.1
2016-10-07T04:13:55.174Z,89.95
2016-10-07T04:14:55.437Z,89.76
2016-10-07T04:15:55.100Z,89.76
2016-10-07T04:16:55.360Z,90.43
2016-10-07T04:17:55.319Z,90.05
2016-10-07T04:18:55.280Z,89.95
2016-10-07T04:19:55.240Z,90.52
2016-10-07T04:20:55.203Z,90.43
2016-10-07T04:21:55.167Z,90.33
2016-10-07T04:22:55.125Z,90.62
2016-10-07T04:23:54.786Z,90.24
2016-10-07T04:24:55.048Z,90.33
2016-10-07T04:25:55.115Z,90.14
2016-10-07T04:26:54.669Z,90.24
2016-10-07T04:27:54.928Z,90.24
2016-10-07T04:28:54.892Z,90.43
2016-10-07T04:29:54.852Z,90.24
2016-10-07T04:30:54.817Z,90.33
2016-10-07T04:31:54.773Z,90.33
2016-10-07T04:32:54.734Z,90.52
2016-10-07T04:33:54.726Z,90.43
2016-10-07T04:34:54.659Z,90.43
2016-10-07T04:35:54.618Z,90.71
2016-10-07T04:36:54.580Z,90.71
2016-10-07T04:37:54.540Z,90.52
2016-10-07T04:38:54.504Z,89.95
2016-10-07T04:39:54.459Z,89.76
2016-10-07T04:40:54.419Z,89.86
2016-10-07T04:41:54.396Z,90.14
2016-10-07T04:42:54.345Z,90.05
2016-10-07T04:43:54.308Z,89.86
2016-10-07T04:44:54.274Z,89.76
2016-10-07T04:45:54.227Z,90.43
2016-10-07T04:46:54.188Z,90.24
2016-10-07T04:47:54.150Z,90.14
2016-10-07T04:48:53.808Z,90.24
2016-10-07T04:49:54.071Z,90.14
2016-10-07T04:50:54.033Z,89.76
2016-10-07T04:51:53.994Z,89.86
2016-10-07T04:52:53.954Z,89.86
2016-10-07T04:53:53.915Z,90.24
2016-10-07T04:54:53.875Z,90.14
2016-10-07T04:55:53.838Z,90.33
2016-10-07T04:56:53.801Z,89.67
2016-10-07T04:57:53.762Z,89.95
2016-10-07T04:58:53.720Z,89.95
2016-10-07T04:59:53.687Z,89.67
2016-10-07T05:00:53.660Z,89.95
2016-10-07T05:01:53.602Z,89.76
2016-10-07T05:02:53.262Z,89.81
2016-10-07T05:03:53.524Z,89.62
2016-10-07T05:04:53.489Z,89.53
2016-10-07T05:05:53.150Z,89.72
2016-10-07T05:06:53.408Z,89.9
2016-10-07T05:07:53.372Z,89.72
2016-10-07T05:08:53.031Z,89.05
2016-10-07T05:09:53.294Z,89.53
2016-10-07T05:10:53.254Z,89.33
2016-10-07T05:11:53.215Z,89.14
2016-10-07T05:12:52.875Z,88.86
2016-10-07T05:13:53.136Z,89.24
2016-10-07T05:14:53.100Z,88.95
2016-10-07T05:15:53.065Z,89.14
2016-10-07T05:16:53.020Z,88.86
2016-10-07T05:17:52.678Z,89.14
2016-10-07T05:18:52.641Z,88.76
2016-10-07T05:19:52.604Z,88.86
2016-10-07T05:20:52.872Z,88.86
2016-10-07T05:21:52.522Z,88.86
2016-10-07T05:22:52.785Z,88.76
2016-10-07T05:23:52.750Z,88.57
2016-10-07T05:24:52.710Z,88.39
2016-10-07T05:25:52.670Z,87.91
2016-10-07T05:26:52.327Z,88.43
2016-10-07T05:27:52.595Z,88.43
2016-10-07T05:28:52.257Z,88.15
2016-10-07T05:29:52.513Z,87.67
2016-10-07T05:30:52.474Z,87.57
2016-10-07T05:31:52.436Z,87.57
2016-10-07T05:32:52.401Z,87.57
2016-10-07T05:33:52.062Z,87.38
2016-10-07T05:34:52.321Z,87.29
2016-10-07T05:35:52.283Z,86.91
2016-10-07T05:36:51.943Z,87.38
2016-10-07T05:37:52.206Z,87.1
2016-10-07T05:38:52.167Z,86.72
2016-10-07T05:39:51.828Z,86.24
2016-10-07T05:40:52.090Z,86.15
2016-10-07T05:41:51.748Z,86.15
2016-10-07T05:42:52.017Z,85.96
2016-10-07T05:43:51.971Z,85.2
2016-10-07T05:44:51.947Z,85.43
2016-10-07T05:45:51.895Z,85.15
2016-10-07T05:46:51.553Z,84.95
2016-10-07T05:47:51.818Z,84.86
2016-10-07T05:48:51.792Z,84.86
2016-10-07T05:49:51.743Z,84.86
2016-10-07T05:50:51.704Z,84.77
2016-10-07T05:51:51.677Z,84.2
2016-10-07T05:52:51.627Z,84.39
2016-10-07T05:53:51.588Z,84.39
2016-10-07T05:54:51.551Z,84.58
2016-10-07T05:55:51.510Z,83.62
2016-10-07T05:56:51.170Z,84.48
2016-10-07T05:57:51.433Z,83.72
2016-10-07T05:58:51.405Z,83.91
2016-10-07T05:59:51.358Z,83.91
2016-10-07T06:00:51.316Z,84.2
2016-10-07T06:01:51.280Z,84.29
2016-10-07T06:02:51.244Z,84.01
2016-10-07T06:03:51.205Z,83.91
2016-10-07T06:04:50.864Z,83.91
2016-10-07T06:05:51.130Z,83.91
2016-10-07T06:06:51.089Z,83.91
2016-10-07T06:07:51.053Z,83.82
2016-10-07T06:08:51.014Z,84.1
2016-10-07T06:09:50.675Z,83.91
2016-10-07T06:10:50.938Z,84.1
2016-10-07T06:11:50.595Z,83.82
2016-10-07T06:12:50.862Z,84.01
2016-10-07T06:13:50.827Z,83.91
2016-10-07T06:14:50.483Z,83.91
2016-10-07T06:15:50.756Z,83.82
2016-10-07T06:16:50.714Z,84.77
2016-10-07T06:17:50.369Z,84.48
2016-10-07T06:18:50.633Z,84.67
2016-10-07T06:19:50.601Z,84.29
2016-10-07T06:20:50.558Z,84.48
2016-10-07T06:21:50.216Z,83.44
2016-10-07T06:22:50.480Z,84.29
2016-10-07T06:23:50.443Z,84.77
2016-10-07T06:24:50.102Z,84.77
2016-10-07T06:25:50.369Z,84.29
2016-10-07T06:26:50.330Z,84.1
2016-10-07T06:27:50.292Z,84.58
2016-10-07T06:28:49.952Z,83.44
2016-10-07T06:29:50.214Z,83.53
2016-10-07T06:30:50.178Z,84.48
2016-10-07T06:31:50.139Z,84.48
2016-10-07T06:32:50.102Z,83.62
2016-10-07T06:33:50.064Z,83.72
2016-10-07T06:34:50.027Z,84.48
2016-10-07T06:35:49.988Z,84.33
2016-10-07T06:36:49.948Z,84.58
2016-10-07T06:37:49.912Z,84.01
2016-10-07T06:38:49.885Z,84.29
2016-10-07T06:39:49.834Z,84.39
2016-10-07T06:40:49.799Z,84.29
2016-10-07T06:41:49.760Z,84.2
2016-10-07T06:42:49.421Z,84.24
2016-10-07T06:43:49.385Z,84.67
2016-10-07T06:44:49.644Z,84.86
2016-10-07T06:45:49.607Z,85
2016-10-07T06:46:49.569Z,84.81
2016-10-07T06:47:49.533Z,85
2016-10-07T06:48:49.491Z,84.72
2016-10-07T06:49:49.461Z,84.62
2016-10-07T06:50:49.419Z,84.24
2016-10-07T06:51:49.077Z,84.72
2016-10-07T06:52:49.344Z,84.62
2016-10-07T06:53:49.004Z,84.33
2016-10-07T06:54:49.266Z,84.33
2016-10-07T06:55:49.233Z,84.33
2016-10-07T06:56:49.194Z,84.33
2016-10-07T06:57:49.153Z,84.24
2016-10-07T06:58:49.121Z,84.33
2016-10-07T06:59:48.775Z,84.33
2016-10-07T07:00:49.043Z,84.72
2016-10-07T07:01:49.005Z,84.52
2016-10-07T07:02:48.667Z,83.48
2016-10-07T07:03:48.931Z,84.52
2016-10-07T07:04:48.900Z,83.76
2016-10-07T07:05:48.853Z,84.14
2016-10-07T07:06:48.514Z,83.9
2016-10-07T07:07:48.780Z,83.62
2016-10-07T07:08:48.444Z,83.81
2016-10-07T07:09:48.704Z,83.23
2016-10-07T07:10:48.372Z,83.42
2016-10-07T07:11:48.628Z,83.52
2016-10-07T07:12:48.595Z,83.14
2016-10-07T07:13:48.554Z,83.23
2016-10-07T07:14:48.518Z,83.52
2016-10-07T07:15:48.480Z,82.67
2016-10-07T07:16:48.139Z,82.57
2016-10-07T07:17:48.404Z,83.33
2016-10-07T07:18:48.366Z,83.33
2016-10-07T07:19:48.031Z,82.76
2016-10-07T07:20:48.293Z,82.95
2016-10-07T07:21:48.260Z,82.76
2016-10-07T07:22:48.219Z,82.67
2016-10-07T07:23:48.194Z,82.28
2016-10-07T07:24:47.844Z,82.48
2016-10-07T07:25:48.110Z,82.28
2016-10-07T07:26:47.770Z,81.62
2016-10-07T07:27:48.034Z,81.85
2016-10-07T07:28:47.998Z,81.9
2016-10-07T07:29:47.956Z,82.04
2016-10-07T07:30:47.919Z,81.56
2016-10-07T07:31:47.883Z,81.28
2016-10-07T07:32:47.848Z,80.99
2016-10-07T07:33:47.510Z,81.28
2016-10-07T07:34:47.771Z,80.33
2016-10-07T07:35:47.734Z,80.04
2016-10-07T07:36:47.700Z,80.47
2016-10-07T07:37:47.662Z,79.94
2016-10-07T07:38:47.625Z,80.13
2016-10-07T07:39:47.589Z,79.09
2016-10-07T07:40:47.553Z,79.19
2016-10-07T07:41:47.213Z,79.38
2016-10-07T07:42:47.477Z,79.19
2016-10-07T07:43:47.441Z,79.47
2016-10-07T07:44:47.402Z,78.99
2016-10-07T07:45:47.365Z,78.99
2016-10-07T07:46:47.030Z,79.09
2016-10-07T07:47:47.291Z,78.52
2016-10-07T07:48:47.256Z,78.42
2016-10-07T07:49:47.218Z,78.42
2016-10-07T07:50:47.181Z,77.85
2016-10-07T07:51:47.155Z,78.14
2016-10-07T07:52:47.115Z,78.23
2016-10-07T07:53:47.072Z,77.61
2016-10-07T07:54:47.035Z,77.61
2016-10-07T07:55:46.999Z,77.22
2016-10-07T07:56:46.962Z,76.94
2016-10-07T07:57:46.927Z,77.03
2016-10-07T07:58:46.914Z,77.03
2016-10-07T07:59:46.568Z,76.94
2016-10-07T08:00:46.518Z,77.03
2016-10-07T08:01:46.780Z,77.13
2016-10-07T08:02:46.441Z,77.42
2016-10-07T08:03:46.704Z,77.03
2016-10-07T08:04:46.672Z,77.03
2016-10-07T08:05:46.639Z,77.03
2016-10-07T08:06:46.295Z,77.13
2016-10-07T08:07:46.559Z,77.32
2016-10-07T08:08:46.521Z,77.22
2016-10-07T08:09:46.488Z,77.22
2016-10-07T08:10:46.452Z,77.32
2016-10-07T08:11:46.116Z,77.07
2016-10-07T08:12:46.379Z,76.94
2016-10-07T08:13:46.343Z,76.31
2016-10-07T08:14:46.307Z,76.88
2016-10-07T08:15:46.271Z,76.03
2016-10-07T08:16:45.932Z,76.12
2016-10-07T08:17:46.198Z,75.36
2016-10-07T08:18:46.161Z,75.93
2016-10-07T08:19:45.827Z,75.55
2016-10-07T08:20:46.091Z,75.36
2016-10-07T08:21:46.054Z,75.07
2016-10-07T08:22:46.017Z,74.5
2016-10-07T08:23:45.982Z,74.6
2016-10-07T08:24:45.945Z,73.96
2016-10-07T08:25:45.608Z,73.68
2016-10-07T08:26:45.875Z,73.58
2016-10-07T08:27:45.538Z,73.49
2016-10-07T08:28:45.804Z,73.68
2016-10-07T08:29:45.766Z,73.11
2016-10-07T08:30:45.727Z,73.3
2016-10-07T08:31:45.694Z,73.01
2016-10-07T08:32:45.660Z,72.92
2016-10-07T08:33:45.622Z,72.82
2016-10-07T08:34:45.588Z,72.44
2016-10-07T08:35:45.553Z,72.92
2016-10-07T08:36:45.212Z,73.01
2016-10-07T08:37:45.480Z,72.53
2016-10-07T08:38:45.445Z,73.58
2016-10-07T08:39:45.420Z,73.87
2016-10-07T08:40:45.377Z,74.4
2016-10-07T08:41:45.340Z,74.12
2016-10-07T08:42:45.305Z,74.02
2016-10-07T08:43:45.264Z,74.12
2016-10-07T08:44:45.231Z,73.93
2016-10-07T08:45:45.197Z,74.4
2016-10-07T08:46:44.860Z,74.21
2016-10-07T08:47:45.126Z,74.44
2016-10-07T08:48:45.091Z,74.54
2016-10-07T08:49:44.753Z,74.35
2016-10-07T08:50:45.029Z,74.16
2016-10-07T08:51:44.678Z,74.35
2016-10-07T08:52:44.645Z,74.35
2016-10-07T08:53:44.911Z,74.06
2016-10-07T08:54:44.878Z,73.39
2016-10-07T08:55:44.838Z,72.86
2016-10-07T08:56:44.809Z,72.67
2016-10-07T08:57:44.771Z,72.28
2016-10-07T08:58:44.437Z,71.91
2016-10-07T08:59:44.696Z,71.14
2016-10-07T09:00:44.676Z,70.89
2016-10-07T09:01:44.630Z,70.98
2016-10-07T09:02:44.290Z,70.42
2016-10-07T09:03:44.554Z,70.73
2016-10-07T09:04:44.523Z,70.45
2016-10-07T09:05:44.486Z,70.16
2016-10-07T09:06:44.461Z,69.68
2016-10-07T09:07:44.115Z,69.78
2016-10-07T09:08:44.384Z,69.59
2016-10-07T09:09:44.346Z,68.06
2016-10-07T09:10:44.014Z,67.97
2016-10-07T09:11:44.281Z,68.06
2016-10-07T09:12:44.242Z,67.87
2016-10-07T09:13:43.904Z,68.26
2016-10-07T09:14:43.878Z,68.06
2016-10-07T09:15:43.839Z,68.92
2016-10-07T09:16:43.806Z,69.65
2016-10-07T09:17:44.070Z,69.74
2016-10-07T09:18:44.035Z,70.13
2016-10-07T09:19:44.004Z,70.76
2016-10-07T09:20:43.968Z,70.95
2016-10-07T09:21:43.934Z,70.86
2016-10-07T09:22:43.898Z,71.33
2016-10-07T09:23:43.865Z,71.43
2016-10-07T09:24:43.528Z,71.43
2016-10-07T09:25:43.795Z,70.98
2016-10-07T09:26:43.762Z,70.32
2016-10-07T09:27:43.422Z,70.51
2016-10-07T09:28:43.388Z,70.7
2016-10-07T09:29:43.655Z,70.79
2016-10-07T09:30:43.624Z,70.7
2016-10-07T09:31:43.588Z,70.61
2016-10-07T09:32:43.551Z,69.65
2016-10-07T09:33:43.519Z,69.46
2016-10-07T09:34:43.180Z,68.22
2016-10-07T09:35:43.448Z,68.16
2016-10-07T09:36:43.413Z,68.16
2016-10-07T09:37:43.383Z,68.35
2016-10-07T09:38:43.349Z,68.6
2016-10-07T09:39:43.311Z,69.08
2016-10-07T09:40:43.275Z,68.7
2016-10-07T09:41:42.939Z,68.88
2016-10-07T09:42:43.209Z,69.27
2016-10-07T09:43:43.184Z,68.79
2016-10-07T09:44:43.139Z,68.51
2016-10-07T09:45:43.107Z,67.27
2016-10-07T09:46:43.072Z,67.3
2016-10-07T09:47:43.034Z,66.82
2016-10-07T09:48:43.000Z,67.01
2016-10-07T09:49:42.969Z,67.21
2016-10-07T09:50:42.630Z,66.72
2016-10-07T09:51:42.901Z,65.42
2016-10-07T09:52:42.561Z,64.28
2016-10-07T09:53:42.829Z,63.89
2016-10-07T09:54:42.795Z,63.35
2016-10-07T09:55:42.763Z,63.35
2016-10-07T09:56:42.726Z,63
2016-10-07T09:57:42.695Z,63.1
2016-10-07T09:58:42.661Z,62.14
2016-10-07T09:59:42.634Z,60.8
2016-10-07T10:00:42.293Z,60.35
2016-10-07T10:01:42.567Z,59.2
2016-10-07T10:02:42.528Z,59.88
2016-10-07T10:03:42.496Z,60.06
2016-10-07T10:04:42.160Z,59.78
2016-10-07T10:05:42.128Z,58.73
2016-10-07T10:06:42.095Z,57.9
2016-10-07T10:07:42.363Z,57.9
2016-10-07T10:08:42.330Z,58.54
2016-10-07T10:09:42.299Z,57.61
2016-10-07T10:10:42.268Z,56.65
2016-10-07T10:11:42.235Z,55.34
2016-10-07T10:12:41.905Z,54.7
2016-10-07T10:13:42.178Z,54.22
2016-10-07T10:14:42.140Z,54.77
2016-10-07T10:15:42.105Z,54.48
2016-10-07T10:16:42.078Z,54.22
2016-10-07T10:17:42.044Z,54.28
2016-10-07T10:18:42.012Z,55.44
2016-10-07T10:19:41.980Z,56.27
2016-10-07T10:20:41.653Z,56.91
2016-10-07T10:21:41.917Z,57.97
2016-10-07T10:22:41.884Z,57.29
2016-10-07T10:23:41.551Z,56.37
2016-10-07T10:24:41.822Z,55.79
2016-10-07T10:25:41.791Z,56.27
2016-10-07T10:26:41.755Z,55.41
2016-10-07T10:27:41.726Z,54.45
2016-10-07T10:28:41.695Z,55.6
2016-10-07T10:29:41.661Z,55.69
2016-10-07T10:30:41.628Z,56.43
2016-10-07T10:31:41.298Z,56.34
2016-10-07T10:32:41.267Z,56.05
2016-10-07T10:33:41.533Z,54.64
2016-10-07T10:34:41.504Z,52.85
2016-10-07T10:35:41.471Z,51.75
2016-10-07T10:36:41.139Z,50.89
2016-10-07T10:37:41.413Z,50.6
2016-10-07T10:38:41.074Z,51.46
2016-10-07T10:39:41.341Z,52.87
2016-10-07T10:40:41.317Z,53.71
2016-10-07T10:41:41.285Z,53.52
2016-10-07T10:42:41.253Z,50.77
2016-10-07T10:43:40.919Z,48.61
2016-10-07T10:44:41.195Z,46.65
2016-10-07T10:45:41.162Z,45.42
2016-10-07T10:46:41.128Z,43.84
2016-10-07T10:47:41.106Z,41.93
2016-10-07T10:48:40.769Z,38.89
2016-10-07T10:49:41.043Z,37.95
2016-10-07T10:50:41.018Z,35.85
2016-10-07T10:51:40.987Z,35.94
2016-10-07T10:52:40.659Z,35.85
2016-10-07T10:53:40.933Z,34.9
2016-10-07T10:54:40.905Z,35.75
2016-10-07T10:55:40.876Z,36.11
2016-10-07T10:56:40.849Z,36.6
2016-10-07T10:57:40.822Z,36.97
2016-10-07T10:58:40.798Z,36.58
2016-10-07T10:59:40.773Z,34.86
2016-10-07T11:00:40.747Z,34.69
2016-10-07T11:01:40.718Z,34.88
2016-10-07T11:02:40.389Z,36.21
2016-10-07T11:03:40.670Z,38.37
2016-10-07T11:04:40.641Z,40.55
2016-10-07T11:05:40.614Z,41.31
2016-10-07T11:06:40.585Z,41.29
2016-10-07T11:07:40.561Z,41.39
2016-10-07T11:08:40.537Z,42.06
2016-10-07T11:09:40.507Z,43.1
2016-10-07T11:10:40.177Z,44.8
2016-10-07T11:11:40.150Z,45.83
2016-10-07T11:12:40.423Z,47.15
2016-10-07T11:13:40.098Z,48.28
2016-10-07T11:14:40.367Z,49.05
2016-10-07T11:15:40.338Z,50.17
2016-10-07T11:16:40.308Z,50.34
2016-10-07T11:17:40.281Z,51.01
2016-10-07T11:18:40.250Z,51.01
2016-10-07T11:19:39.920Z,50.93
2016-10-07T11:20:40.190Z,51.51
2016-10-07T11:21:40.161Z,51.1
2016-10-07T11:22:39.830Z,51.13
2016-10-07T11:23:39.803Z,50.56
2016-10-07T11:24:40.072Z,49.52
2016-10-07T11:25:40.039Z,49.33
2016-10-07T11:26:40.009Z,50
2016-10-07T11:27:39.980Z,50.74
2016-10-07T11:28:39.949Z,51.48
2016-10-07T11:29:39.918Z,51.97
2016-10-07T11:30:39.889Z,51.68
2016-10-07T11:31:39.859Z,53.66
2016-10-07T11:32:39.825Z,53.82
2016-10-07T11:33:39.797Z,54.11
2016-10-07T11:34:39.470Z,55.54
2016-10-07T11:35:39.739Z,54.59
2016-10-07T11:36:39.700Z,54.94
2016-10-07T11:37:39.669Z,55.8
2016-10-07T11:38:39.337Z,56.28
2016-10-07T11:39:39.605Z,55.61
2016-10-07T11:40:39.573Z,55.52
2016-10-07T11:41:39.539Z,56.28
2016-10-07T11:42:39.507Z,55.23
2016-10-07T11:43:39.174Z,54.94
2016-10-07T11:44:39.444Z,55.16
2016-10-07T11:45:39.109Z,55.45
2016-10-07T11:46:39.379Z,54.78
2016-10-07T11:47:39.043Z,54.68
2016-10-07T11:48:39.314Z,53.47
2016-10-07T11:49:39.282Z,53.75
2016-10-07T11:50:39.248Z,53.69
2016-10-07T11:51:39.216Z,53.11
2016-10-07T11:52:38.884Z,52.73
2016-10-07T11:53:38.848Z,52.34
2016-10-07T11:54:39.119Z,52.25
2016-10-07T11:55:39.089Z,51.7
2016-10-07T11:56:39.054Z,51.99
2016-10-07T11:57:38.720Z,51.32
2016-10-07T11:58:38.988Z,51.1
2016-10-07T11:59:38.959Z,50.34
2016-10-07T12:00:38.924Z,51.2
2016-10-07T12:01:38.589Z,51.1
2016-10-07T12:02:38.860Z,51.1
2016-10-07T12:03:38.826Z,51.68
2016-10-07T12:04:38.793Z,51.39
2016-10-07T12:05:38.761Z,52.15
2016-10-07T12:06:38.730Z,52.15
2016-10-07T12:07:38.697Z,51.58
2016-10-07T12:08:38.661Z,50.91
2016-10-07T12:09:38.628Z,50.74
2016-10-07T12:10:38.599Z,50.46
2016-10-07T12:11:38.565Z,49.98
2016-10-07T12:12:38.534Z,50.26
2016-10-07T12:13:38.196Z,50.46
2016-10-07T12:14:38.467Z,50.1
2016-10-07T12:15:38.435Z,49.91
2016-10-07T12:16:38.401Z,49.81
2016-10-07T12:17:38.369Z,49.43
2016-10-07T12:18:38.339Z,49.62
2016-10-07T12:19:38.305Z,49.79
2016-10-07T12:20:38.273Z,49.4
2016-10-07T12:21:38.240Z,49.69
2016-10-07T12:22:38.211Z,50.46
2016-10-07T12:23:38.176Z,49.88
2016-10-07T12:24:38.144Z,50.17
2016-10-07T12:25:37.809Z,50.43
2016-10-07T12:26:38.078Z,50.91
2016-10-07T12:27:38.048Z,50.24
2016-10-07T12:28:38.012Z,50.81
2016-10-07T12:29:37.981Z,50.81
2016-10-07T12:30:37.949Z,51.2
2016-10-07T12:31:37.617Z,51.39
2016-10-07T12:32:37.581Z,51.29
2016-10-07T12:33:37.851Z,51.48
2016-10-07T12:34:37.818Z,51.58
2016-10-07T12:35:37.789Z,52.25
2016-10-07T12:36:37.752Z,51.93
2016-10-07T12:37:37.720Z,52.89
2016-10-07T12:38:37.695Z,54.14
2016-10-07T12:39:37.655Z,54.3
2016-10-07T12:40:37.622Z,55.16
2016-10-07T12:41:37.291Z,56.12
2016-10-07T12:42:37.565Z,56.4
2016-10-07T12:43:37.524Z,57.14
2016-10-07T12:44:37.493Z,58.1
2016-10-07T12:45:37.455Z,58.67
2016-10-07T12:46:37.423Z,58.95
2016-10-07T12:47:37.395Z,59.44
2016-10-07T12:48:37.355Z,59.88
2016-10-07T12:49:37.022Z,60.36
2016-10-07T12:50:37.291Z,60.46
2016-10-07T12:51:37.255Z,60.55
2016-10-07T12:52:37.218Z,60.74
2016-10-07T12:53:37.187Z,61.41
2016-10-07T12:54:37.154Z,62.05